createdAt,value
2023-02-16T00:00:49.542Z,101853.81
2023-02-16T00:05:51.895Z,101837.69
2023-02-16T00:11:12.685Z,101854.53
2023-02-16T00:16:23.687Z,101829.72
2023-02-16T00:21:25.963Z,101846.63
2023-02-16T00:26:29.970Z,101844.47
2023-02-16T00:31:32.369Z,101844.78
2023-02-16T00:36:34.577Z,101839.22
2023-02-16T00:41:51.875Z,101844.09
2023-02-16T00:46:54.541Z,101826.75
2023-02-16T00:51:56.748Z,101849.28
2023-02-16T00:56:59.123Z,101843.66
2023-02-16T01:02:01.272Z,101824.91
2023-02-16T01:07:30.092Z,101799.94
2023-02-16T01:12:32.181Z,101804.28
2023-02-16T01:17:34.375Z,101805.12
2023-02-16T01:22:36.488Z,101811.03
2023-02-16T01:27:39.539Z,101812.72
2023-02-16T01:32:41.846Z,101810.22
2023-02-16T01:37:44.048Z,101810.06
2023-02-16T01:42:54.993Z,101807.84
2023-02-16T01:48:20.433Z,101802.59
2023-02-16T01:53:31.477Z,101779.63
2023-02-16T01:58:54.418Z,101796.81
2023-02-16T02:04:15.444Z,101795.41
2023-02-16T02:09:27.662Z,101792.31
2023-02-16T02:14:39.458Z,101776.63
2023-02-16T02:19:58.338Z,101752.16
2023-02-16T02:25:06.589Z,101743.53
2023-02-16T02:30:16.435Z,101763.13
2023-02-16T02:35:33.836Z,101753.38
2023-02-16T02:41:23.812Z,101761.31
2023-02-16T02:46:36.510Z,101770.28
2023-02-16T02:51:40.462Z,101776.00
2023-02-16T02:57:08.840Z,101748.66
2023-02-16T03:02:12.384Z,101757.03
2023-02-16T03:07:15.923Z,101756.16
2023-02-16T03:12:36.731Z,101743.00
2023-02-16T03:17:59.775Z,101734.03
2023-02-16T03:23:23.186Z,101747.28
2023-02-16T03:28:48.166Z,101740.72
2023-02-16T03:33:55.064Z,101738.84
2023-02-16T03:38:58.465Z,101749.66
2023-02-16T03:44:01.018Z,101733.78
2023-02-16T03:49:03.305Z,101751.00
2023-02-16T03:54:05.453Z,101731.28
2023-02-16T03:59:07.628Z,101729.28
2023-02-16T04:04:09.830Z,101748.69
2023-02-16T04:09:12.038Z,101737.38
2023-02-16T04:14:14.178Z,101727.75
2023-02-16T04:19:16.374Z,101741.75
2023-02-16T04:24:18.899Z,101745.63
2023-02-16T04:29:21.157Z,101746.69
2023-02-16T04:34:23.414Z,101743.94
2023-02-16T04:39:25.498Z,101754.59
2023-02-16T04:44:27.698Z,101750.72
2023-02-16T04:49:31.938Z,101750.72
2023-02-16T04:54:34.621Z,101753.91
2023-02-16T04:59:37.050Z,101744.94
2023-02-16T05:04:39.368Z,101746.50
2023-02-16T05:09:41.614Z,101753.44
2023-02-16T05:14:46.717Z,101734.69
2023-02-16T05:19:55.055Z,101732.16
2023-02-16T05:24:57.135Z,101754.41
2023-02-16T05:29:59.865Z,101724.38
2023-02-16T05:35:02.082Z,101743.59
2023-02-16T05:40:04.544Z,101745.47
2023-02-16T05:45:06.963Z,101743.22
2023-02-16T05:50:09.511Z,101744.59
2023-02-16T05:55:11.628Z,101758.66
2023-02-16T06:00:14.570Z,101756.59
2023-02-16T06:05:16.797Z,101746.94
2023-02-16T06:10:19.174Z,101747.44
2023-02-16T06:15:21.247Z,101741.56
2023-02-16T06:20:23.346Z,101733.94
2023-02-16T06:25:25.442Z,101737.16
2023-02-16T06:30:28.351Z,101737.12
2023-02-16T06:35:30.689Z,101720.06
2023-02-16T06:40:32.875Z,101744.53
2023-02-16T06:45:35.042Z,101739.81
2023-02-16T06:50:37.641Z,101741.06
2023-02-16T06:55:39.773Z,101724.69
2023-02-16T07:00:42.006Z,101735.19
2023-02-16T07:05:44.187Z,101737.91
2023-02-16T07:10:50.314Z,101741.75
2023-02-16T07:15:52.732Z,101743.31
2023-02-16T07:20:54.947Z,101735.53
2023-02-16T07:25:57.086Z,101737.03
2023-02-16T07:30:59.264Z,101718.81
2023-02-16T07:36:01.417Z,101735.66
2023-02-16T07:41:05.281Z,101733.88
2023-02-16T07:46:09.304Z,101727.53
2023-02-16T07:51:11.557Z,101720.78
2023-02-16T07:56:26.521Z,101724.22
2023-02-16T08:01:30.043Z,101724.50
2023-02-16T08:06:34.116Z,101727.16
2023-02-16T08:11:36.221Z,101723.97
2023-02-16T08:16:38.832Z,101725.09
2023-02-16T08:21:41.982Z,101738.41
2023-02-16T08:26:44.848Z,101736.31
2023-02-16T08:31:48.231Z,101722.09
2023-02-16T08:36:56.894Z,101706.38
2023-02-16T08:42:01.488Z,101729.38
2023-02-16T08:47:03.838Z,101723.09
2023-02-16T08:52:06.486Z,101736.25
2023-02-16T08:57:09.450Z,101737.84
2023-02-16T09:02:12.435Z,101718.28
2023-02-16T09:07:15.454Z,101727.94
2023-02-16T09:12:17.522Z,101733.75
2023-02-16T09:17:19.817Z,101709.00
2023-02-16T09:22:22.541Z,101722.00
2023-02-16T09:27:24.719Z,101715.47
2023-02-16T09:32:30.618Z,101716.19
2023-02-16T09:43:40.428Z,101700.09
2023-02-16T09:48:46.876Z,101695.59
2023-02-16T09:53:56.313Z,101686.56
2023-02-16T09:59:43.322Z,101693.19
2023-02-16T10:05:00.396Z,101685.22
2023-02-16T10:10:03.702Z,101676.59
2023-02-16T10:15:19.846Z,101684.13
2023-02-16T10:20:37.234Z,101671.97
2023-02-16T10:26:05.319Z,101662.38
2023-02-16T10:37:26.871Z,101647.19
2023-02-16T10:42:37.842Z,101638.50
2023-02-16T10:47:42.368Z,101635.53
2023-02-16T10:52:44.995Z,101642.28
2023-02-16T10:58:15.222Z,101621.00
2023-02-16T11:03:22.483Z,101625.34
2023-02-16T11:08:25.775Z,101618.47
2023-02-16T11:13:34.511Z,101607.81
2023-02-16T11:18:45.142Z,101617.59
2023-02-16T11:23:59.617Z,101597.09
2023-02-16T11:29:20.602Z,101594.22
2023-02-16T11:34:36.996Z,101579.50
2023-02-16T11:39:47.317Z,101576.16
2023-02-16T11:44:57.123Z,101581.34
2023-02-16T11:50:18.990Z,101583.31
2023-02-16T11:55:33.914Z,101567.78
2023-02-16T12:00:36.182Z,101567.03
2023-02-16T12:06:02.382Z,101554.19
2023-02-16T12:11:35.764Z,101540.66
2023-02-16T12:17:26.804Z,101535.59
2023-02-16T12:22:40.831Z,101525.69
2023-02-16T12:27:51.047Z,101521.97
2023-02-16T12:32:55.955Z,101506.91
2023-02-16T12:38:34.148Z,101509.66
2023-02-16T12:43:42.195Z,101505.25
2023-02-16T12:49:13.740Z,101480.47
2023-02-16T12:54:16.131Z,101480.31
2023-02-16T12:59:39.356Z,101476.41
2023-02-16T13:04:47.759Z,101464.44
2023-02-16T13:10:02.115Z,101450.97
2023-02-16T13:15:22.044Z,101442.34
2023-02-16T13:20:24.962Z,101447.28
2023-02-16T13:25:51.764Z,101435.75
2023-02-16T13:31:12.627Z,101436.25
2023-02-16T13:36:23.821Z,101423.69
2023-02-16T13:42:03.676Z,101426.28
2023-02-16T13:47:07.556Z,101418.72
2023-02-16T13:52:41.296Z,101409.00
2023-02-16T13:57:50.361Z,101418.16
2023-02-16T14:02:59.742Z,101405.56
2023-02-16T14:08:18.066Z,101401.19
2023-02-16T14:13:38.562Z,101382.87
2023-02-16T14:18:40.714Z,101395.28
2023-02-16T14:23:43.467Z,101398.28
2023-02-16T14:29:02.688Z,101390.47
2023-02-16T14:34:18.481Z,101401.81
2023-02-16T14:39:22.839Z,101402.94
2023-02-16T14:45:15.361Z,101397.31
2023-02-16T14:50:23.621Z,101389.16
2023-02-16T14:55:26.219Z,101384.62
2023-02-16T15:00:42.086Z,101401.91
2023-02-16T15:05:56.308Z,101378.53
2023-02-16T15:10:58.463Z,101381.09
2023-02-16T15:16:04.638Z,101383.50
2023-02-16T15:21:17.372Z,101389.22
2023-02-16T15:26:28.530Z,101383.59
2023-02-16T15:31:37.003Z,101382.72
2023-02-16T15:36:43.780Z,101368.19
2023-02-16T15:41:50.219Z,101384.19
2023-02-16T15:46:52.813Z,101397.44
2023-02-16T15:51:56.944Z,101393.81
2023-02-16T15:57:01.337Z,101380.62
2023-02-16T16:02:17.233Z,101393.19
2023-02-16T16:07:41.895Z,101397.44
2023-02-16T16:12:46.921Z,101393.25
2023-02-16T16:17:50.675Z,101389.87
2023-02-16T16:22:59.669Z,101396.78
2023-02-16T16:28:03.529Z,101385.00
2023-02-16T16:33:12.059Z,101401.88
2023-02-16T16:38:25.618Z,101406.19
2023-02-16T16:43:44.117Z,101389.13
2023-02-16T16:48:50.062Z,101397.75
2023-02-16T16:53:59.945Z,101411.91
2023-02-16T16:59:02.165Z,101411.34
2023-02-16T17:04:04.408Z,101396.59
2023-02-16T17:09:06.705Z,101392.09
2023-02-16T17:14:15.558Z,101416.13
2023-02-16T17:19:21.008Z,101423.59
2023-02-16T17:24:23.247Z,101410.37
2023-02-16T17:29:25.458Z,101410.91
2023-02-16T17:34:30.927Z,101420.25
2023-02-16T17:39:33.805Z,101410.47
2023-02-16T17:44:36.008Z,101413.56
2023-02-16T17:49:38.691Z,101408.00
2023-02-16T17:54:40.887Z,101405.78
2023-02-16T17:59:43.175Z,101401.69
2023-02-16T18:04:45.375Z,101400.28
2023-02-16T18:09:48.912Z,101400.97
2023-02-16T18:14:51.050Z,101404.75
2023-02-16T18:19:53.130Z,101418.00
2023-02-16T18:24:55.288Z,101398.56
2023-02-16T18:29:57.601Z,101413.59
2023-02-16T18:34:59.706Z,101424.84
2023-02-16T18:40:01.905Z,101419.56
2023-02-16T18:45:05.357Z,101427.34
2023-02-16T18:50:18.442Z,101432.47
2023-02-16T18:55:20.674Z,101418.03
2023-02-16T19:00:23.891Z,101408.31
2023-02-16T19:05:26.011Z,101403.09
2023-02-16T19:10:28.378Z,101421.13
2023-02-16T19:15:30.556Z,101418.81
2023-02-16T19:20:32.792Z,101417.09
2023-02-16T19:25:36.512Z,101431.59
2023-02-16T19:30:39.141Z,101430.56
2023-02-16T19:35:41.353Z,101429.31
2023-02-16T19:40:43.674Z,101420.34
2023-02-16T19:45:45.849Z,101404.22
2023-02-16T19:50:48.106Z,101425.56
2023-02-16T19:55:54.869Z,101426.37
2023-02-16T20:00:57.120Z,101437.91
2023-02-16T20:05:59.278Z,101424.72
2023-02-16T20:11:05.966Z,101374.03
2023-02-16T20:16:10.585Z,101436.44
2023-02-16T20:21:20.938Z,101418.84
2023-02-16T20:26:29.069Z,101425.75
2023-02-16T20:31:38.168Z,101425.78
2023-02-16T20:36:40.785Z,101440.22
2023-02-16T20:41:44.134Z,101424.09
2023-02-16T20:46:46.377Z,101433.31
2023-02-16T20:51:49.144Z,101433.50
2023-02-16T20:56:51.374Z,101435.41
2023-02-16T21:01:53.656Z,101427.44
2023-02-16T21:06:55.894Z,101417.56
2023-02-16T21:11:58.137Z,101431.41
2023-02-16T21:17:00.687Z,101407.50
2023-02-16T21:22:02.953Z,101424.41
2023-02-16T21:27:05.239Z,101424.72
2023-02-16T21:32:07.584Z,101404.53
2023-02-16T21:37:10.174Z,101416.28
2023-02-16T21:42:12.829Z,101414.84
2023-02-16T21:47:34.022Z,101417.56
2023-02-16T21:52:36.145Z,101404.56
2023-02-16T21:57:38.209Z,101415.22
2023-02-16T22:02:40.443Z,101403.63
2023-02-16T22:07:42.775Z,101418.25
2023-02-16T22:12:44.937Z,101410.41
2023-02-16T22:17:47.301Z,101407.78
2023-02-16T22:22:53.490Z,101398.84
2023-02-16T22:27:57.397Z,101416.91
2023-02-16T22:32:59.764Z,101396.88
2023-02-16T22:38:02.235Z,101385.19
2023-02-16T22:43:04.312Z,101393.34
2023-02-16T22:48:06.470Z,101390.16
2023-02-16T22:53:08.656Z,101384.09
2023-02-16T22:58:10.903Z,101382.81
2023-02-16T23:03:13.220Z,101379.84
2023-02-16T23:08:15.777Z,101387.53
2023-02-16T23:13:17.938Z,101390.69
2023-02-16T23:18:20.063Z,101386.06
2023-02-16T23:23:22.198Z,101394.41
2023-02-16T23:28:24.402Z,101392.22
2023-02-16T23:33:26.562Z,101380.75
2023-02-16T23:38:28.921Z,101372.16
2023-02-16T23:43:32.266Z,101382.31
2023-02-16T23:48:34.951Z,101391.97
2023-02-16T23:53:37.017Z,101390.78
2023-02-16T23:58:41.408Z,101393.50
